createdAt,value
2022-08-07T00:01:44.002Z,10.50
2022-08-07T00:04:11.340Z,10.73
2022-08-07T00:06:51.632Z,11.00
2022-08-07T00:09:22.309Z,11.77
2022-08-07T00:11:56.012Z,9.53
2022-08-07T00:14:31.279Z,9.40
2022-08-07T00:17:03.662Z,11.77
2022-08-07T00:20:01.308Z,12.47
2022-08-07T00:22:35.070Z,12.03
2022-08-07T00:25:07.063Z,13.27
2022-08-07T00:27:52.869Z,12.37
2022-08-07T00:30:27.296Z,11.27
2022-08-07T00:32:59.025Z,11.43
2022-08-07T00:35:29.559Z,12.60
2022-08-07T00:37:59.002Z,12.87
2022-08-07T00:40:36.257Z,12.23
2022-08-07T00:43:12.833Z,11.40
2022-08-07T00:45:58.371Z,13.47
2022-08-07T00:48:32.173Z,13.90
2022-08-07T00:51:02.602Z,12.00
2022-08-07T00:53:38.551Z,12.30
2022-08-07T00:56:19.285Z,11.80
2022-08-07T00:58:49.680Z,13.67
2022-08-07T01:01:20.944Z,12.00
2022-08-07T01:03:55.449Z,11.77
2022-08-07T01:06:27.688Z,11.63
2022-08-07T01:08:58.340Z,13.97
2022-08-07T01:12:09.831Z,12.13
2022-08-07T01:14:16.688Z,12.00
2022-08-07T01:16:47.382Z,13.40
2022-08-07T01:19:19.981Z,13.33
2022-08-07T01:21:55.147Z,16.63
2022-08-07T01:24:24.386Z,13.53
2022-08-07T01:26:53.948Z,17.77
2022-08-07T01:29:27.634Z,14.40
2022-08-07T01:31:59.903Z,15.13
2022-08-07T01:34:31.577Z,16.73
2022-08-07T01:37:02.278Z,19.23
2022-08-07T01:39:41.184Z,15.07
2022-08-07T01:42:39.433Z,14.20
2022-08-07T01:45:15.800Z,14.10
2022-08-07T01:48:19.928Z,15.17
2022-08-07T01:50:40.214Z,14.20
2022-08-07T01:53:21.077Z,16.33
2022-08-07T01:55:54.322Z,15.87
2022-08-07T01:58:29.233Z,18.07
2022-08-07T02:01:09.937Z,14.87
2022-08-07T02:03:59.522Z,17.37
2022-08-07T02:06:32.509Z,14.07
2022-08-07T02:09:06.323Z,14.63
2022-08-07T02:12:02.753Z,13.40
2022-08-07T02:14:35.685Z,15.43
2022-08-07T02:17:06.091Z,14.13
2022-08-07T02:20:04.501Z,14.80
2022-08-07T02:22:26.217Z,16.10
2022-08-07T02:24:58.909Z,14.53
2022-08-07T02:27:34.223Z,14.47
2022-08-07T02:30:07.385Z,15.70
2022-08-07T02:32:39.582Z,13.37
2022-08-07T02:36:29.913Z,13.87
2022-08-07T02:38:17.349Z,13.03
2022-08-07T02:40:55.672Z,12.97
2022-08-07T02:43:26.474Z,12.00
2022-08-07T02:45:58.252Z,12.37
2022-08-07T02:48:28.484Z,12.20
2022-08-07T02:50:58.113Z,13.33
2022-08-07T02:53:38.255Z,14.23
2022-08-07T02:56:21.051Z,13.90
2022-08-07T02:58:55.106Z,12.07
2022-08-07T03:01:36.106Z,13.53
2022-08-07T03:04:12.451Z,12.23
2022-08-07T03:06:46.000Z,12.77
2022-08-07T03:09:43.377Z,13.87
2022-08-07T03:12:14.198Z,14.03
2022-08-07T03:14:52.748Z,16.77
2022-08-07T03:17:22.070Z,13.80
2022-08-07T03:19:54.834Z,15.87
2022-08-07T03:22:29.579Z,14.87
2022-08-07T03:24:59.908Z,13.23
2022-08-07T03:27:42.222Z,14.93
2022-08-07T03:30:19.246Z,15.00
2022-08-07T03:32:58.925Z,13.10
2022-08-07T03:35:43.785Z,14.63
2022-08-07T03:38:20.832Z,17.07
2022-08-07T03:40:57.503Z,13.97
2022-08-07T03:43:32.219Z,14.63
2022-08-07T03:46:03.700Z,13.90
2022-08-07T03:48:45.591Z,13.50
2022-08-07T03:51:30.856Z,13.40
2022-08-07T03:54:35.336Z,15.00
2022-08-07T03:57:07.133Z,14.47
2022-08-07T03:59:46.844Z,15.10
2022-08-07T04:02:27.363Z,12.87
2022-08-07T04:04:55.754Z,14.17
2022-08-07T04:07:25.768Z,14.03
2022-08-07T04:10:05.612Z,13.47
2022-08-07T04:12:35.234Z,13.37
2022-08-07T04:15:05.715Z,12.80
2022-08-07T04:18:57.147Z,15.33
2022-08-07T04:20:22.644Z,13.07
2022-08-07T04:23:01.490Z,14.27
2022-08-07T04:25:31.525Z,14.50
2022-08-07T04:28:08.128Z,13.33
2022-08-07T04:30:43.623Z,14.47
2022-08-07T04:33:25.781Z,13.80
2022-08-07T04:35:54.573Z,12.77
2022-08-07T04:38:23.499Z,13.47
2022-08-07T04:40:56.519Z,12.87
2022-08-07T04:44:13.090Z,13.33
2022-08-07T04:46:35.972Z,12.43
2022-08-07T04:49:37.693Z,13.03
2022-08-07T04:52:18.590Z,12.33
2022-08-07T04:54:55.330Z,13.87
2022-08-07T04:58:25.681Z,16.23
2022-08-07T05:00:35.005Z,17.33
2022-08-07T05:04:00.500Z,12.80
2022-08-07T05:06:19.752Z,12.67
2022-08-07T05:09:00.894Z,15.13
2022-08-07T05:11:57.691Z,13.80
2022-08-07T05:14:55.284Z,14.37
2022-08-07T05:17:51.696Z,15.33
2022-08-07T05:20:15.132Z,14.70
2022-08-07T05:22:47.582Z,14.57
2022-08-07T05:25:26.259Z,13.80
2022-08-07T05:28:20.286Z,13.03
2022-08-07T05:30:52.672Z,13.33
2022-08-07T05:33:22.427Z,11.53
2022-08-07T05:35:53.051Z,12.83
2022-08-07T05:39:01.045Z,10.93
2022-08-07T05:41:15.635Z,11.20
2022-08-07T05:44:01.226Z,11.60
2022-08-07T05:46:37.595Z,10.73
2022-08-07T05:49:12.350Z,11.23
2022-08-07T05:51:46.631Z,12.10
2022-08-07T05:54:44.182Z,11.53
2022-08-07T05:57:06.440Z,12.43
2022-08-07T05:59:57.592Z,10.97
2022-08-07T06:02:30.754Z,10.80
2022-08-07T06:05:04.577Z,13.70
2022-08-07T06:08:12.339Z,12.37
2022-08-07T06:10:25.297Z,12.03
2022-08-07T06:12:54.493Z,15.13
2022-08-07T06:15:39.479Z,13.87
2022-08-07T06:18:13.762Z,12.63
2022-08-07T06:20:50.955Z,12.63
2022-08-07T06:24:37.148Z,11.30
2022-08-07T06:26:27.529Z,13.13
2022-08-07T06:29:00.035Z,10.53
2022-08-07T06:31:49.354Z,12.07
2022-08-07T06:34:19.587Z,12.37
2022-08-07T06:36:48.154Z,12.57
2022-08-07T06:40:16.427Z,10.90
2022-08-07T06:42:16.575Z,10.27
2022-08-07T06:44:51.253Z,9.37
2022-08-07T06:47:21.126Z,9.93
2022-08-07T06:49:50.931Z,9.00
2022-08-07T06:52:31.792Z,9.80
2022-08-07T06:55:34.501Z,8.90
2022-08-07T06:58:02.687Z,13.53
2022-08-07T07:00:36.657Z,8.70
2022-08-07T07:03:10.592Z,8.63
2022-08-07T07:06:03.982Z,8.63
2022-08-07T07:08:33.222Z,7.67
2022-08-07T07:11:13.552Z,7.40
2022-08-07T07:13:58.424Z,6.77
2022-08-07T07:16:45.081Z,7.23
2022-08-07T07:19:55.547Z,7.17
2022-08-07T07:22:36.193Z,6.23
2022-08-07T07:26:31.280Z,5.57
2022-08-07T07:28:03.168Z,5.57
2022-08-07T07:30:40.756Z,5.63
2022-08-07T07:33:12.396Z,3.80
2022-08-07T07:36:04.042Z,4.83
2022-08-07T07:38:36.094Z,3.83
2022-08-07T07:41:08.664Z,4.20
2022-08-07T07:44:14.314Z,5.97
2022-08-07T07:46:53.515Z,3.83
2022-08-07T07:50:33.877Z,4.13
2022-08-07T07:52:16.400Z,3.53
2022-08-07T07:54:51.515Z,3.77
2022-08-07T07:57:52.476Z,3.13
2022-08-07T08:00:29.892Z,4.73
2022-08-07T08:03:08.675Z,4.33
2022-08-07T08:05:55.098Z,5.77
2022-08-07T08:08:34.764Z,5.50
2022-08-07T08:11:08.220Z,4.83
2022-08-07T08:13:53.032Z,5.23
2022-08-07T08:16:29.590Z,5.93
2022-08-07T08:19:09.838Z,4.40
2022-08-07T08:22:07.835Z,4.63
2022-08-07T08:25:18.155Z,4.23
2022-08-07T08:27:56.215Z,4.00
2022-08-07T08:30:28.958Z,6.87
2022-08-07T08:33:04.235Z,3.87
2022-08-07T08:35:39.386Z,3.93
2022-08-07T08:38:18.419Z,4.10
2022-08-07T08:40:55.950Z,4.03
2022-08-07T08:43:42.804Z,5.30
2022-08-07T08:46:38.174Z,3.50
2022-08-07T08:49:18.716Z,5.70
2022-08-07T08:52:16.480Z,3.50
2022-08-07T08:54:55.171Z,3.83
2022-08-07T08:57:40.109Z,3.83
2022-08-07T09:00:13.953Z,3.27
2022-08-07T09:02:55.425Z,8.30
2022-08-07T09:05:37.305Z,3.70
2022-08-07T09:08:28.253Z,3.10
2022-08-07T09:11:24.809Z,3.47
2022-08-07T09:14:17.991Z,3.93
2022-08-07T09:17:02.076Z,2.70
2022-08-07T09:19:53.575Z,3.10
2022-08-07T09:24:33.795Z,3.27
2022-08-07T09:25:55.115Z,3.83
2022-08-07T09:30:06.492Z,3.77
2022-08-07T09:31:39.439Z,3.30
2022-08-07T09:34:22.090Z,2.87
2022-08-07T09:37:03.666Z,4.57
2022-08-07T09:39:53.953Z,3.53
2022-08-07T09:42:41.929Z,4.10
2022-08-07T09:47:26.284Z,3.27
2022-08-07T09:48:43.952Z,2.53
2022-08-07T09:52:10.241Z,3.00
2022-08-07T09:54:40.717Z,4.47
2022-08-07T09:57:47.088Z,5.70
2022-08-07T10:00:18.922Z,2.53
2022-08-07T10:04:05.051Z,2.55
2022-08-07T10:06:40.413Z,2.67
2022-08-07T10:10:00.768Z,6.80
2022-08-07T10:12:54.158Z,3.80
2022-08-07T10:15:51.090Z,3.17
2022-08-07T10:18:53.718Z,3.55
2022-08-07T10:22:14.605Z,3.53
2022-08-07T10:24:50.884Z,4.18
2022-08-07T10:27:46.370Z,3.00
2022-08-07T10:30:17.919Z,3.67
2022-08-07T10:34:05.706Z,4.25
2022-08-07T10:36:30.189Z,4.22
2022-08-07T10:39:17.277Z,2.75
2022-08-07T10:42:02.985Z,2.90
2022-08-07T10:44:50.124Z,2.60
2022-08-07T10:47:53.849Z,3.20
2022-08-07T10:50:29.980Z,3.30
2022-08-07T10:53:21.427Z,2.25
2022-08-07T10:56:05.195Z,2.78
2022-08-07T10:59:08.189Z,2.90
2022-08-07T11:01:52.038Z,2.70
2022-08-07T11:04:53.943Z,2.30
2022-08-07T11:07:58.551Z,2.92
2022-08-07T11:10:31.264Z,3.33
2022-08-07T11:14:42.200Z,3.20
2022-08-07T11:16:19.497Z,2.35
2022-08-07T11:18:53.050Z,2.28
2022-08-07T11:21:32.678Z,4.30
2022-08-07T11:24:18.975Z,2.70
2022-08-07T11:26:53.891Z,2.38
2022-08-07T11:29:42.613Z,2.85
2022-08-07T11:32:26.914Z,2.60
2022-08-07T11:35:03.049Z,2.60
2022-08-07T11:38:12.817Z,2.63
2022-08-07T11:40:57.447Z,2.60
2022-08-07T11:43:54.429Z,2.60
2022-08-07T11:46:40.794Z,2.33
2022-08-07T11:50:25.529Z,3.80
2022-08-07T11:52:46.639Z,4.18
2022-08-07T11:56:09.273Z,2.67
2022-08-07T11:58:42.615Z,2.03
2022-08-07T12:01:59.777Z,2.15
2022-08-07T12:04:47.401Z,2.05
2022-08-07T12:07:27.497Z,2.15
2022-08-07T12:10:16.260Z,2.28
2022-08-07T12:12:51.534Z,1.80
2022-08-07T12:15:57.927Z,2.55
2022-08-07T12:18:22.018Z,3.45
2022-08-07T12:21:20.990Z,1.92
2022-08-07T12:24:36.916Z,2.80
2022-08-07T12:27:14.965Z,3.00
2022-08-07T12:29:53.031Z,2.58
2022-08-07T12:32:32.221Z,3.10
2022-08-07T12:35:05.603Z,1.60
2022-08-07T12:38:09.435Z,2.05
2022-08-07T12:40:47.581Z,1.70
2022-08-07T12:44:01.460Z,1.92
2022-08-07T12:46:32.458Z,2.20
2022-08-07T12:49:39.884Z,2.60
2022-08-07T12:52:13.717Z,2.13
2022-08-07T12:54:59.026Z,1.90
2022-08-07T12:57:59.198Z,2.45
2022-08-07T13:00:32.918Z,3.17
2022-08-07T13:04:02.364Z,1.90
2022-08-07T13:06:37.296Z,2.40
2022-08-07T13:10:19.283Z,2.13
2022-08-07T13:12:53.212Z,2.10
2022-08-07T13:15:35.242Z,2.20
2022-08-07T13:18:26.498Z,1.80
2022-08-07T13:21:04.139Z,1.80
2022-08-07T13:24:01.195Z,1.85
2022-08-07T13:26:44.568Z,2.20
2022-08-07T13:29:21.760Z,2.53
2022-08-07T13:31:57.801Z,2.53
2022-08-07T13:34:48.517Z,1.83
2022-08-07T13:37:31.695Z,1.60
2022-08-07T13:40:33.906Z,1.70
2022-08-07T13:43:11.817Z,2.00
2022-08-07T13:46:21.852Z,2.78
2022-08-07T13:48:38.786Z,3.90
2022-08-07T13:51:28.581Z,2.80
2022-08-07T13:54:06.097Z,3.38
2022-08-07T13:56:41.369Z,3.20
2022-08-07T13:59:27.154Z,2.17
2022-08-07T14:02:07.552Z,2.88
2022-08-07T14:04:54.336Z,2.47
2022-08-07T14:07:28.261Z,2.45
2022-08-07T14:10:15.632Z,2.65
2022-08-07T14:12:55.700Z,3.03
2022-08-07T14:15:41.042Z,2.00
2022-08-07T14:18:29.021Z,2.75
2022-08-07T14:21:20.759Z,2.10
2022-08-07T14:24:06.289Z,2.75
2022-08-07T14:26:50.724Z,2.90
2022-08-07T14:30:08.006Z,3.53
2022-08-07T14:32:15.072Z,2.85
2022-08-07T14:34:47.085Z,2.45
2022-08-07T14:37:18.554Z,3.63
2022-08-07T14:40:15.987Z,2.38
2022-08-07T14:43:55.112Z,2.28
2022-08-07T14:51:16.296Z,2.45
2022-08-07T14:54:08.573Z,2.03
2022-08-07T14:56:40.571Z,3.35
2022-08-07T14:59:13.660Z,2.13
2022-08-07T15:02:33.037Z,2.35
2022-08-07T15:05:02.242Z,2.60
2022-08-07T15:07:50.945Z,3.05
2022-08-07T15:10:26.084Z,3.47
2022-08-07T15:12:59.390Z,2.15
2022-08-07T15:15:39.002Z,1.98
2022-08-07T15:25:15.912Z,2.33
2022-08-07T15:27:05.232Z,2.67
2022-08-07T15:30:06.636Z,1.92
2022-08-07T15:36:01.295Z,2.67
2022-08-07T15:41:24.481Z,1.80
2022-08-07T15:44:03.956Z,1.92
2022-08-07T15:50:05.326Z,2.42
2022-08-07T15:52:30.800Z,2.42
2022-08-07T15:55:08.852Z,3.08
2022-08-07T15:57:49.160Z,2.33
2022-08-07T16:00:31.288Z,1.73
2022-08-07T16:03:06.402Z,2.35
2022-08-07T16:05:42.515Z,2.53
2022-08-07T16:08:31.866Z,2.17
2022-08-07T16:11:26.327Z,2.05
2022-08-07T16:14:10.601Z,3.38
2022-08-07T16:17:01.004Z,2.95
2022-08-07T16:20:03.924Z,3.95
2022-08-07T16:23:05.439Z,3.70
2022-08-07T16:25:56.609Z,3.40
2022-08-07T16:30:06.461Z,2.97
2022-08-07T16:32:03.728Z,3.55
2022-08-07T16:34:45.282Z,2.88
2022-08-07T16:38:09.353Z,2.70
2022-08-07T16:41:18.985Z,2.80
2022-08-07T16:45:14.380Z,2.58
2022-08-07T16:48:27.832Z,3.20
2022-08-07T16:52:01.489Z,2.60
2022-08-07T16:54:33.048Z,2.70
2022-08-07T16:58:01.996Z,2.03
2022-08-07T17:00:30.155Z,2.85
2022-08-07T17:03:59.498Z,2.25
2022-08-07T17:06:44.774Z,2.05
2022-08-07T17:10:05.158Z,3.10
2022-08-07T17:12:33.833Z,2.33
2022-08-07T17:15:18.299Z,2.30
2022-08-07T17:18:11.535Z,2.83
2022-08-07T17:20:42.626Z,4.45
2022-08-07T17:23:38.290Z,3.22
2022-08-07T17:26:24.025Z,2.35
2022-08-07T17:30:12.598Z,3.92
2022-08-07T17:32:31.404Z,2.72
2022-08-07T17:35:51.817Z,4.20
2022-08-07T17:38:34.418Z,4.50
2022-08-07T17:42:01.057Z,5.80
2022-08-07T17:44:06.656Z,5.25
2022-08-07T17:47:00.610Z,3.30
2022-08-07T17:49:45.249Z,7.30
2022-08-07T17:52:39.592Z,5.80
2022-08-07T17:55:13.912Z,5.18
2022-08-07T17:57:58.625Z,3.88
2022-08-07T18:00:48.440Z,5.25
2022-08-07T18:03:26.563Z,5.28
2022-08-07T18:06:06.630Z,6.63
2022-08-07T18:09:01.828Z,3.85
2022-08-07T18:12:17.869Z,4.68
2022-08-07T18:14:46.216Z,6.47
2022-08-07T18:18:44.695Z,5.18
2022-08-07T18:21:08.514Z,3.10
2022-08-07T18:23:43.321Z,4.57
2022-08-07T18:26:23.518Z,6.07
2022-08-07T18:30:04.539Z,3.53
2022-08-07T18:32:16.755Z,4.13
2022-08-07T18:35:15.678Z,3.75
2022-08-07T18:38:59.169Z,4.07
2022-08-07T18:41:16.778Z,4.20
2022-08-07T18:44:11.567Z,3.15
2022-08-07T18:46:48.271Z,3.53
2022-08-07T18:50:30.968Z,4.57
2022-08-07T18:53:03.005Z,4.07
2022-08-07T18:55:56.253Z,6.32
2022-08-07T18:58:39.411Z,7.00
2022-08-07T19:02:33.160Z,3.83
2022-08-07T19:04:39.658Z,4.05
2022-08-07T19:07:34.915Z,7.00
2022-08-07T19:10:14.806Z,4.22
2022-08-07T19:13:12.127Z,4.65
2022-08-07T19:17:05.086Z,7.50
2022-08-07T19:19:00.478Z,5.00
2022-08-07T19:21:54.884Z,4.67
2022-08-07T19:24:37.246Z,5.13
2022-08-07T19:28:29.979Z,7.87
2022-08-07T19:30:55.312Z,4.70
2022-08-07T19:33:08.376Z,5.13
2022-08-07T19:35:45.427Z,8.03
2022-08-07T19:38:18.381Z,6.80
2022-08-07T19:40:51.855Z,6.87
2022-08-07T19:43:49.290Z,5.50
2022-08-07T19:46:18.871Z,3.30
2022-08-07T19:48:57.298Z,3.57
2022-08-07T19:51:51.872Z,4.50
2022-08-07T19:54:31.865Z,6.07
2022-08-07T19:57:51.657Z,4.70
2022-08-07T19:59:57.725Z,4.97
2022-08-07T20:02:31.393Z,4.00
2022-08-07T20:05:07.890Z,4.63
2022-08-07T20:07:46.399Z,6.63
2022-08-07T20:10:35.178Z,4.57
2022-08-07T20:13:22.694Z,3.97
2022-08-07T20:15:57.540Z,5.97
2022-08-07T20:18:32.444Z,4.70
2022-08-07T20:21:21.593Z,5.60
2022-08-07T20:24:00.317Z,7.27
2022-08-07T20:26:32.833Z,5.50
2022-08-07T20:29:46.852Z,4.83
2022-08-07T20:32:11.573Z,6.37
2022-08-07T20:34:53.143Z,3.80
2022-08-07T20:37:29.271Z,4.67
2022-08-07T20:40:02.394Z,5.23
2022-08-07T20:42:35.311Z,4.63
2022-08-07T20:45:32.168Z,4.83
2022-08-07T20:47:58.742Z,5.20
2022-08-07T20:50:30.370Z,4.73
2022-08-07T20:53:00.136Z,4.97
2022-08-07T20:55:32.135Z,7.10
2022-08-07T20:58:08.977Z,3.50
2022-08-07T21:00:49.944Z,8.87
2022-08-07T21:03:23.013Z,6.93
2022-08-07T21:06:00.866Z,6.10
2022-08-07T21:08:38.189Z,5.77
2022-08-07T21:11:14.160Z,7.33
2022-08-07T21:14:16.547Z,6.83
2022-08-07T21:16:56.079Z,5.27
2022-08-07T21:19:32.370Z,5.47
2022-08-07T21:22:19.255Z,4.63
2022-08-07T21:25:12.264Z,6.47
2022-08-07T21:28:01.745Z,5.70
2022-08-07T21:30:41.732Z,6.30
2022-08-07T21:33:18.491Z,5.10
2022-08-07T21:36:06.003Z,5.90
2022-08-07T21:38:54.947Z,6.60
2022-08-07T21:41:37.693Z,3.87
2022-08-07T21:44:29.998Z,5.63
2022-08-07T21:47:07.502Z,3.80
2022-08-07T21:50:02.262Z,5.20
2022-08-07T21:52:43.900Z,3.17
2022-08-07T21:55:28.127Z,6.40
2022-08-07T21:58:30.440Z,4.17
2022-08-07T22:01:14.038Z,6.57
2022-08-07T22:03:48.588Z,9.90
2022-08-07T22:06:30.307Z,6.40
2022-08-07T22:09:07.259Z,7.90
2022-08-07T22:12:05.935Z,5.50
2022-08-07T22:14:38.538Z,7.63
2022-08-07T22:17:38.855Z,4.73
2022-08-07T22:20:23.023Z,10.10
2022-08-07T22:22:57.987Z,7.70
2022-08-07T22:25:38.950Z,6.20
2022-08-07T22:28:31.464Z,6.17
2022-08-07T22:31:09.716Z,7.37
2022-08-07T22:33:56.350Z,7.53
2022-08-07T22:36:38.586Z,8.20
2022-08-07T22:39:23.396Z,6.87
2022-08-07T22:42:18.996Z,7.50
2022-08-07T22:45:02.469Z,7.50
2022-08-07T22:48:31.811Z,8.67
2022-08-07T22:51:23.257Z,7.97
2022-08-07T22:54:09.532Z,6.33
2022-08-07T22:56:53.497Z,7.77
2022-08-07T22:59:51.877Z,5.93
2022-08-07T23:03:02.727Z,5.83
2022-08-07T23:06:15.277Z,6.97
2022-08-07T23:10:04.288Z,6.37
2022-08-07T23:12:07.168Z,7.17
2022-08-07T23:14:48.952Z,7.93
2022-08-07T23:17:45.193Z,9.10
2022-08-07T23:20:40.754Z,7.93
2022-08-07T23:24:11.149Z,6.83
2022-08-07T23:26:54.853Z,6.30
2022-08-07T23:30:39.253Z,5.27
2022-08-07T23:34:35.635Z,4.70
2022-08-07T23:36:22.966Z,6.50
2022-08-07T23:39:08.731Z,6.00
2022-08-07T23:42:04.140Z,6.23
2022-08-07T23:45:02.962Z,8.13
2022-08-07T23:48:01.953Z,9.37
2022-08-07T23:50:38.070Z,5.83
2022-08-07T23:53:26.711Z,5.90
2022-08-07T23:56:24.599Z,5.87
2022-08-07T23:59:10.960Z,6.40
